sensor_id;sensor_type;location;lat;lon;timestamp;P1;durP1;ratioP1;P2;durP2;ratioP2
56114;SDS011;41988;53.020;6.576;2023-04-24T00:02:44;3.95;;;1.40;;
56114;SDS011;41988;53.020;6.576;2023-04-24T00:05:30;2.30;;;1.27;;
56114;SDS011;41988;53.020;6.576;2023-04-24T00:08:17;2.30;;;1.40;;
56114;SDS011;41988;53.020;6.576;2023-04-24T00:11:02;2.85;;;1.48;;
56114;SDS011;41988;53.020;6.576;2023-04-24T00:13:46;2.35;;;1.25;;
56114;SDS011;41988;53.020;6.576;2023-04-24T00:16:31;2.15;;;1.27;;
56114;SDS011;41988;53.020;6.576;2023-04-24T00:19:15;4.88;;;1.35;;
56114;SDS011;41988;53.020;6.576;2023-04-24T00:22:00;3.60;;;1.25;;
56114;SDS011;41988;53.020;6.576;2023-04-24T00:24:45;2.65;;;1.40;;
56114;SDS011;41988;53.020;6.576;2023-04-24T00:27:29;3.03;;;1.55;;
56114;SDS011;41988;53.020;6.576;2023-04-24T00:30:14;4.00;;;1.70;;
56114;SDS011;41988;53.020;6.576;2023-04-24T00:32:59;2.60;;;1.50;;
56114;SDS011;41988;53.020;6.576;2023-04-24T00:35:43;2.22;;;1.60;;
56114;SDS011;41988;53.020;6.576;2023-04-24T00:38:28;2.25;;;1.50;;
56114;SDS011;41988;53.020;6.576;2023-04-24T00:41:13;2.13;;;1.30;;
56114;SDS011;41988;53.020;6.576;2023-04-24T00:43:57;3.30;;;1.50;;
56114;SDS011;41988;53.020;6.576;2023-04-24T00:46:42;2.55;;;1.40;;
56114;SDS011;41988;53.020;6.576;2023-04-24T00:49:27;5.63;;;1.52;;
56114;SDS011;41988;53.020;6.576;2023-04-24T00:52:12;2.30;;;1.48;;
56114;SDS011;41988;53.020;6.576;2023-04-24T00:55:01;3.00;;;1.92;;
56114;SDS011;41988;53.020;6.576;2023-04-24T00:57:45;2.90;;;2.00;;
56114;SDS011;41988;53.020;6.576;2023-04-24T01:00:32;3.30;;;2.30;;
56114;SDS011;41988;53.020;6.576;2023-04-24T01:03:16;6.65;;;2.20;;
56114;SDS011;41988;53.020;6.576;2023-04-24T01:06:02;2.90;;;2.13;;
56114;SDS011;41988;53.020;6.576;2023-04-24T01:08:47;3.90;;;2.53;;
56114;SDS011;41988;53.020;6.576;2023-04-24T01:11:32;2.90;;;2.20;;
56114;SDS011;41988;53.020;6.576;2023-04-24T01:14:16;3.88;;;2.70;;
56114;SDS011;41988;53.020;6.576;2023-04-24T01:17:00;4.00;;;2.90;;
56114;SDS011;41988;53.020;6.576;2023-04-24T01:19:46;4.70;;;3.25;;
56114;SDS011;41988;53.020;6.576;2023-04-24T01:22:32;4.22;;;2.90;;
56114;SDS011;41988;53.020;6.576;2023-04-24T01:25:19;4.32;;;3.45;;
56114;SDS011;41988;53.020;6.576;2023-04-24T01:28:04;4.03;;;3.03;;
56114;SDS011;41988;53.020;6.576;2023-04-24T01:30:49;5.22;;;3.20;;
56114;SDS011;41988;53.020;6.576;2023-04-24T01:33:34;4.75;;;3.40;;
56114;SDS011;41988;53.020;6.576;2023-04-24T01:36:19;4.90;;;3.65;;
56114;SDS011;41988;53.020;6.576;2023-04-24T01:39:04;6.70;;;4.18;;
56114;SDS011;41988;53.020;6.576;2023-04-24T01:41:48;5.68;;;4.57;;
56114;SDS011;41988;53.020;6.576;2023-04-24T01:44:33;7.97;;;4.05;;
56114;SDS011;41988;53.020;6.576;2023-04-24T01:47:19;5.82;;;4.43;;
56114;SDS011;41988;53.020;6.576;2023-04-24T01:50:04;6.57;;;4.85;;
56114;SDS011;41988;53.020;6.576;2023-04-24T01:52:49;7.03;;;4.90;;
56114;SDS011;41988;53.020;6.576;2023-04-24T01:55:33;6.18;;;5.07;;
56114;SDS011;41988;53.020;6.576;2023-04-24T01:58:18;7.45;;;5.47;;
56114;SDS011;41988;53.020;6.576;2023-04-24T02:01:03;7.07;;;5.55;;
56114;SDS011;41988;53.020;6.576;2023-04-24T02:03:48;7.78;;;6.00;;
56114;SDS011;41988;53.020;6.576;2023-04-24T02:06:33;8.63;;;6.38;;
56114;SDS011;41988;53.020;6.576;2023-04-24T02:09:18;7.38;;;5.82;;
56114;SDS011;41988;53.020;6.576;2023-04-24T02:12:02;9.38;;;6.78;;
56114;SDS011;41988;53.020;6.576;2023-04-24T02:14:47;9.43;;;6.88;;
56114;SDS011;41988;53.020;6.576;2023-04-24T02:17:31;12.43;;;7.32;;
56114;SDS011;41988;53.020;6.576;2023-04-24T02:20:16;9.75;;;7.30;;
56114;SDS011;41988;53.020;6.576;2023-04-24T02:23:01;9.73;;;7.82;;
56114;SDS011;41988;53.020;6.576;2023-04-24T02:25:45;8.90;;;7.05;;
56114;SDS011;41988;53.020;6.576;2023-04-24T02:28:31;10.52;;;7.57;;
56114;SDS011;41988;53.020;6.576;2023-04-24T02:31:15;9.82;;;7.00;;
56114;SDS011;41988;53.020;6.576;2023-04-24T02:34:00;11.23;;;7.53;;
56114;SDS011;41988;53.020;6.576;2023-04-24T02:36:44;10.55;;;7.30;;
56114;SDS011;41988;53.020;6.576;2023-04-24T02:39:29;10.70;;;7.88;;
56114;SDS011;41988;53.020;6.576;2023-04-24T02:42:13;9.90;;;8.15;;
56114;SDS011;41988;53.020;6.576;2023-04-24T02:44:59;13.10;;;9.02;;
56114;SDS011;41988;53.020;6.576;2023-04-24T02:47:43;11.43;;;8.95;;
56114;SDS011;41988;53.020;6.576;2023-04-24T02:50:28;11.93;;;9.68;;
56114;SDS011;41988;53.020;6.576;2023-04-24T02:53:13;12.00;;;9.95;;
56114;SDS011;41988;53.020;6.576;2023-04-24T02:55:58;12.20;;;9.70;;
56114;SDS011;41988;53.020;6.576;2023-04-24T02:58:42;11.52;;;9.35;;
56114;SDS011;41988;53.020;6.576;2023-04-24T03:01:27;12.38;;;9.50;;
56114;SDS011;41988;53.020;6.576;2023-04-24T03:04:11;11.43;;;9.13;;
56114;SDS011;41988;53.020;6.576;2023-04-24T03:06:56;11.18;;;9.77;;
56114;SDS011;41988;53.020;6.576;2023-04-24T03:09:40;12.80;;;9.27;;
56114;SDS011;41988;53.020;6.576;2023-04-24T03:12:25;9.88;;;8.77;;
56114;SDS011;41988;53.020;6.576;2023-04-24T03:15:10;9.75;;;8.32;;
56114;SDS011;41988;53.020;6.576;2023-04-24T03:17:55;9.48;;;7.68;;
56114;SDS011;41988;53.020;6.576;2023-04-24T03:20:40;11.20;;;8.77;;
56114;SDS011;41988;53.020;6.576;2023-04-24T03:23:24;11.38;;;7.93;;
56114;SDS011;41988;53.020;6.576;2023-04-24T03:26:09;13.88;;;8.23;;
56114;SDS011;41988;53.020;6.576;2023-04-24T03:28:54;8.30;;;6.95;;
56114;SDS011;41988;53.020;6.576;2023-04-24T03:31:39;9.32;;;7.75;;
56114;SDS011;41988;53.020;6.576;2023-04-24T03:34:24;8.10;;;6.75;;
56114;SDS011;41988;53.020;6.576;2023-04-24T03:37:09;8.80;;;7.03;;
56114;SDS011;41988;53.020;6.576;2023-04-24T03:39:53;10.30;;;6.93;;
56114;SDS011;41988;53.020;6.576;2023-04-24T03:42:38;8.70;;;6.70;;
56114;SDS011;41988;53.020;6.576;2023-04-24T03:45:22;7.43;;;5.93;;
56114;SDS011;41988;53.020;6.576;2023-04-24T03:48:07;7.15;;;5.50;;
56114;SDS011;41988;53.020;6.576;2023-04-24T03:50:52;7.97;;;5.25;;
56114;SDS011;41988;53.020;6.576;2023-04-24T03:53:36;8.90;;;6.05;;
56114;SDS011;41988;53.020;6.576;2023-04-24T03:56:21;7.68;;;4.88;;
56114;SDS011;41988;53.020;6.576;2023-04-24T03:59:05;6.72;;;5.32;;
56114;SDS011;41988;53.020;6.576;2023-04-24T04:01:50;7.07;;;5.20;;
56114;SDS011;41988;53.020;6.576;2023-04-24T04:04:34;7.03;;;5.50;;
56114;SDS011;41988;53.020;6.576;2023-04-24T04:07:19;8.60;;;5.47;;
56114;SDS011;41988;53.020;6.576;2023-04-24T04:10:03;8.23;;;5.55;;
56114;SDS011;41988;53.020;6.576;2023-04-24T04:12:50;9.20;;;6.63;;
56114;SDS011;41988;53.020;6.576;2023-04-24T04:15:34;8.05;;;6.40;;
56114;SDS011;41988;53.020;6.576;2023-04-24T04:18:19;9.82;;;5.85;;
56114;SDS011;41988;53.020;6.576;2023-04-24T04:21:04;8.88;;;6.68;;
56114;SDS011;41988;53.020;6.576;2023-04-24T04:23:49;8.27;;;6.35;;
56114;SDS011;41988;53.020;6.576;2023-04-24T04:26:33;9.77;;;6.53;;
56114;SDS011;41988;53.020;6.576;2023-04-24T04:29:19;10.27;;;6.80;;
56114;SDS011;41988;53.020;6.576;2023-04-24T04:32:03;9.00;;;7.15;;
56114;SDS011;41988;53.020;6.576;2023-04-24T04:34:48;9.85;;;6.32;;
56114;SDS011;41988;53.020;6.576;2023-04-24T04:37:33;9.25;;;6.38;;
56114;SDS011;41988;53.020;6.576;2023-04-24T04:40:17;9.48;;;6.18;;
56114;SDS011;41988;53.020;6.576;2023-04-24T04:43:02;7.80;;;5.60;;
56114;SDS011;41988;53.020;6.576;2023-04-24T04:45:46;7.72;;;4.07;;
56114;SDS011;41988;53.020;6.576;2023-04-24T04:48:31;6.10;;;4.57;;
56114;SDS011;41988;53.020;6.576;2023-04-24T04:51:16;4.28;;;3.47;;
56114;SDS011;41988;53.020;6.576;2023-04-24T04:54:01;5.30;;;2.80;;
56114;SDS011;41988;53.020;6.576;2023-04-24T04:56:45;3.20;;;2.42;;
56114;SDS011;41988;53.020;6.576;2023-04-24T04:59:30;3.08;;;2.03;;
56114;SDS011;41988;53.020;6.576;2023-04-24T05:02:14;2.50;;;1.65;;
56114;SDS011;41988;53.020;6.576;2023-04-24T05:04:59;4.40;;;2.03;;
56114;SDS011;41988;53.020;6.576;2023-04-24T05:07:44;3.40;;;1.70;;
56114;SDS011;41988;53.020;6.576;2023-04-24T05:10:28;4.22;;;2.20;;
56114;SDS011;41988;53.020;6.576;2023-04-24T05:13:14;3.30;;;1.83;;
56114;SDS011;41988;53.020;6.576;2023-04-24T05:15:58;2.88;;;2.00;;
56114;SDS011;41988;53.020;6.576;2023-04-24T05:18:43;2.70;;;1.90;;
56114;SDS011;41988;53.020;6.576;2023-04-24T05:21:28;2.83;;;1.80;;
56114;SDS011;41988;53.020;6.576;2023-04-24T05:24:14;2.95;;;2.22;;
56114;SDS011;41988;53.020;6.576;2023-04-24T05:26:59;3.17;;;2.20;;
56114;SDS011;41988;53.020;6.576;2023-04-24T05:29:44;3.67;;;2.25;;
56114;SDS011;41988;53.020;6.576;2023-04-24T05:32:28;3.97;;;2.38;;
56114;SDS011;41988;53.020;6.576;2023-04-24T05:35:13;4.32;;;3.10;;
56114;SDS011;41988;53.020;6.576;2023-04-24T05:37:57;4.00;;;2.90;;
56114;SDS011;41988;53.020;6.576;2023-04-24T05:40:43;3.60;;;2.28;;
56114;SDS011;41988;53.020;6.576;2023-04-24T05:43:27;4.03;;;2.90;;
56114;SDS011;41988;53.020;6.576;2023-04-24T05:46:12;4.40;;;2.90;;
56114;SDS011;41988;53.020;6.576;2023-04-24T05:48:56;4.55;;;3.13;;
56114;SDS011;41988;53.020;6.576;2023-04-24T05:51:41;4.47;;;2.90;;
56114;SDS011;41988;53.020;6.576;2023-04-24T05:54:26;3.83;;;2.60;;
56114;SDS011;41988;53.020;6.576;2023-04-24T05:57:10;4.10;;;2.33;;
56114;SDS011;41988;53.020;6.576;2023-04-24T05:59:54;5.57;;;2.50;;
56114;SDS011;41988;53.020;6.576;2023-04-24T06:02:39;5.90;;;2.97;;
56114;SDS011;41988;53.020;6.576;2023-04-24T06:05:23;3.45;;;2.58;;
56114;SDS011;41988;53.020;6.576;2023-04-24T06:08:09;5.72;;;2.80;;
56114;SDS011;41988;53.020;6.576;2023-04-24T06:10:55;4.38;;;2.33;;
56114;SDS011;41988;53.020;6.576;2023-04-24T06:13:39;5.90;;;3.25;;
56114;SDS011;41988;53.020;6.576;2023-04-24T06:16:24;3.15;;;1.88;;
56114;SDS011;41988;53.020;6.576;2023-04-24T06:19:09;3.25;;;1.50;;
56114;SDS011;41988;53.020;6.576;2023-04-24T06:21:53;3.05;;;1.60;;
56114;SDS011;41988;53.020;6.576;2023-04-24T06:24:41;2.83;;;1.50;;
56114;SDS011;41988;53.020;6.576;2023-04-24T06:27:26;3.30;;;1.80;;
56114;SDS011;41988;53.020;6.576;2023-04-24T06:30:10;3.17;;;1.80;;
56114;SDS011;41988;53.020;6.576;2023-04-24T06:32:55;3.33;;;2.20;;
56114;SDS011;41988;53.020;6.576;2023-04-24T06:35:39;4.25;;;2.08;;
56114;SDS011;41988;53.020;6.576;2023-04-24T06:38:24;6.03;;;2.70;;
56114;SDS011;41988;53.020;6.576;2023-04-24T06:41:09;6.63;;;2.97;;
56114;SDS011;41988;53.020;6.576;2023-04-24T06:43:54;7.40;;;3.63;;
56114;SDS011;41988;53.020;6.576;2023-04-24T06:46:38;8.13;;;3.53;;
56114;SDS011;41988;53.020;6.576;2023-04-24T06:49:23;6.50;;;3.92;;
56114;SDS011;41988;53.020;6.576;2023-04-24T06:52:07;8.52;;;4.78;;
56114;SDS011;41988;53.020;6.576;2023-04-24T06:54:52;8.63;;;4.82;;
56114;SDS011;41988;53.020;6.576;2023-04-24T06:57:44;8.50;;;4.43;;
56114;SDS011;41988;53.020;6.576;2023-04-24T07:00:29;9.38;;;5.43;;
56114;SDS011;41988;53.020;6.576;2023-04-24T07:03:13;9.93;;;4.90;;
56114;SDS011;41988;53.020;6.576;2023-04-24T07:05:58;10.18;;;5.30;;
56114;SDS011;41988;53.020;6.576;2023-04-24T07:08:42;6.57;;;4.20;;
56114;SDS011;41988;53.020;6.576;2023-04-24T07:11:27;6.95;;;4.22;;
56114;SDS011;41988;53.020;6.576;2023-04-24T07:14:13;8.30;;;4.38;;
56114;SDS011;41988;53.020;6.576;2023-04-24T07:16:58;5.38;;;3.92;;
56114;SDS011;41988;53.020;6.576;2023-04-24T07:19:43;7.68;;;3.72;;
56114;SDS011;41988;53.020;6.576;2023-04-24T07:22:27;5.65;;;4.00;;
56114;SDS011;41988;53.020;6.576;2023-04-24T07:25:12;5.22;;;3.47;;
56114;SDS011;41988;53.020;6.576;2023-04-24T07:27:57;5.90;;;3.10;;
56114;SDS011;41988;53.020;6.576;2023-04-24T07:30:43;6.63;;;2.92;;
56114;SDS011;41988;53.020;6.576;2023-04-24T07:33:27;4.65;;;2.55;;
56114;SDS011;41988;53.020;6.576;2023-04-24T07:36:12;5.32;;;2.47;;
56114;SDS011;41988;53.020;6.576;2023-04-24T07:39:00;4.57;;;2.78;;
56114;SDS011;41988;53.020;6.576;2023-04-24T07:41:47;4.63;;;2.35;;
56114;SDS011;41988;53.020;6.576;2023-04-24T07:44:32;8.45;;;2.60;;
56114;SDS011;41988;53.020;6.576;2023-04-24T07:47:16;7.00;;;2.70;;
56114;SDS011;41988;53.020;6.576;2023-04-24T07:50:01;8.25;;;2.53;;
56114;SDS011;41988;53.020;6.576;2023-04-24T07:52:45;5.97;;;2.75;;
56114;SDS011;41988;53.020;6.576;2023-04-24T07:55:31;8.30;;;2.80;;
56114;SDS011;41988;53.020;6.576;2023-04-24T07:58:15;3.45;;;2.05;;
56114;SDS011;41988;53.020;6.576;2023-04-24T08:01:00;9.30;;;2.35;;
56114;SDS011;41988;53.020;6.576;2023-04-24T08:03:44;4.93;;;2.10;;
56114;SDS011;41988;53.020;6.576;2023-04-24T08:06:29;8.63;;;2.65;;
56114;SDS011;41988;53.020;6.576;2023-04-24T08:09:15;7.80;;;2.63;;
56114;SDS011;41988;53.020;6.576;2023-04-24T08:12:00;7.97;;;3.60;;
56114;SDS011;41988;53.020;6.576;2023-04-24T08:14:45;10.20;;;4.40;;
56114;SDS011;41988;53.020;6.576;2023-04-24T08:17:30;10.57;;;5.25;;
56114;SDS011;41988;53.020;6.576;2023-04-24T08:20:14;15.25;;;6.60;;
56114;SDS011;41988;53.020;6.576;2023-04-24T08:22:59;14.85;;;8.57;;
56114;SDS011;41988;53.020;6.576;2023-04-24T08:25:44;20.10;;;9.02;;
56114;SDS011;41988;53.020;6.576;2023-04-24T08:28:28;20.42;;;9.85;;
56114;SDS011;41988;53.020;6.576;2023-04-24T08:31:13;19.40;;;9.63;;
56114;SDS011;41988;53.020;6.576;2023-04-24T08:33:58;22.17;;;11.45;;
56114;SDS011;41988;53.020;6.576;2023-04-24T08:36:43;23.25;;;11.90;;
56114;SDS011;41988;53.020;6.576;2023-04-24T08:39:27;32.67;;;11.90;;
56114;SDS011;41988;53.020;6.576;2023-04-24T08:42:12;25.77;;;11.93;;
56114;SDS011;41988;53.020;6.576;2023-04-24T08:44:57;23.73;;;12.40;;
56114;SDS011;41988;53.020;6.576;2023-04-24T08:47:41;27.10;;;12.25;;
56114;SDS011;41988;53.020;6.576;2023-04-24T08:50:27;21.85;;;11.77;;
56114;SDS011;41988;53.020;6.576;2023-04-24T08:53:13;23.80;;;12.07;;
56114;SDS011;41988;53.020;6.576;2023-04-24T08:55:58;25.45;;;10.98;;
56114;SDS011;41988;53.020;6.576;2023-04-24T08:58:44;20.70;;;12.35;;
56114;SDS011;41988;53.020;6.576;2023-04-24T09:01:30;22.48;;;11.70;;
56114;SDS011;41988;53.020;6.576;2023-04-24T09:04:16;25.75;;;12.30;;
56114;SDS011;41988;53.020;6.576;2023-04-24T09:07:03;20.38;;;11.50;;
56114;SDS011;41988;53.020;6.576;2023-04-24T09:09:49;22.63;;;12.50;;
56114;SDS011;41988;53.020;6.576;2023-04-24T09:12:34;22.10;;;12.65;;
56114;SDS011;41988;53.020;6.576;2023-04-24T09:15:20;25.92;;;14.38;;
56114;SDS011;41988;53.020;6.576;2023-04-24T09:18:05;25.02;;;13.15;;
56114;SDS011;41988;53.020;6.576;2023-04-24T09:20:59;22.00;;;12.85;;
56114;SDS011;41988;53.020;6.576;2023-04-24T09:23:45;21.92;;;12.57;;
56114;SDS011;41988;53.020;6.576;2023-04-24T09:26:30;20.75;;;12.27;;
56114;SDS011;41988;53.020;6.576;2023-04-24T09:29:16;18.95;;;12.65;;
56114;SDS011;41988;53.020;6.576;2023-04-24T09:32:10;22.50;;;13.07;;
56114;SDS011;41988;53.020;6.576;2023-04-24T09:35:06;25.75;;;13.40;;
56114;SDS011;41988;53.020;6.576;2023-04-24T09:37:54;23.13;;;12.43;;
56114;SDS011;41988;53.020;6.576;2023-04-24T09:40:41;23.50;;;11.57;;
56114;SDS011;41988;53.020;6.576;2023-04-24T09:43:26;26.52;;;10.05;;
56114;SDS011;41988;53.020;6.576;2023-04-24T09:46:11;18.85;;;9.98;;
56114;SDS011;41988;53.020;6.576;2023-04-24T09:48:56;19.58;;;9.60;;
56114;SDS011;41988;53.020;6.576;2023-04-24T09:51:41;23.63;;;9.63;;
56114;SDS011;41988;53.020;6.576;2023-04-24T09:54:26;15.82;;;8.18;;
56114;SDS011;41988;53.020;6.576;2023-04-24T09:57:11;17.85;;;8.73;;
56114;SDS011;41988;53.020;6.576;2023-04-24T09:59:56;15.07;;;8.02;;
56114;SDS011;41988;53.020;6.576;2023-04-24T10:02:41;20.25;;;8.00;;
56114;SDS011;41988;53.020;6.576;2023-04-24T10:05:28;14.02;;;6.93;;
56114;SDS011;41988;53.020;6.576;2023-04-24T10:08:13;21.90;;;7.38;;
56114;SDS011;41988;53.020;6.576;2023-04-24T10:10:58;15.60;;;7.25;;
56114;SDS011;41988;53.020;6.576;2023-04-24T10:13:44;15.10;;;6.57;;
56114;SDS011;41988;53.020;6.576;2023-04-24T10:16:28;20.30;;;7.72;;
56114;SDS011;41988;53.020;6.576;2023-04-24T10:19:14;12.65;;;7.50;;
56114;SDS011;41988;53.020;6.576;2023-04-24T10:21:59;11.63;;;5.97;;
56114;SDS011;41988;53.020;6.576;2023-04-24T10:24:44;11.77;;;6.55;;
56114;SDS011;41988;53.020;6.576;2023-04-24T10:27:29;14.30;;;5.78;;
56114;SDS011;41988;53.020;6.576;2023-04-24T10:30:15;14.82;;;4.47;;
56114;SDS011;41988;53.020;6.576;2023-04-24T10:33:00;11.25;;;4.00;;
56114;SDS011;41988;53.020;6.576;2023-04-24T10:35:45;11.00;;;4.22;;
56114;SDS011;41988;53.020;6.576;2023-04-24T10:38:32;8.38;;;3.40;;
56114;SDS011;41988;53.020;6.576;2023-04-24T10:41:18;8.23;;;3.55;;
56114;SDS011;41988;53.020;6.576;2023-04-24T10:44:14;10.60;;;3.40;;
56114;SDS011;41988;53.020;6.576;2023-04-24T10:46:59;9.32;;;3.42;;
56114;SDS011;41988;53.020;6.576;2023-04-24T10:49:43;13.13;;;5.22;;
56114;SDS011;41988;53.020;6.576;2023-04-24T10:52:43;8.90;;;2.83;;
56114;SDS011;41988;53.020;6.576;2023-04-24T10:55:42;10.70;;;3.17;;
56114;SDS011;41988;53.020;6.576;2023-04-24T10:58:37;8.88;;;2.55;;
56114;SDS011;41988;53.020;6.576;2023-04-24T11:01:27;6.85;;;2.40;;
56114;SDS011;41988;53.020;6.576;2023-04-24T11:04:12;12.30;;;2.75;;
56114;SDS011;41988;53.020;6.576;2023-04-24T11:06:57;9.95;;;2.40;;
56114;SDS011;41988;53.020;6.576;2023-04-24T11:09:42;10.35;;;2.95;;
56114;SDS011;41988;53.020;6.576;2023-04-24T11:12:27;7.25;;;2.42;;
56114;SDS011;41988;53.020;6.576;2023-04-24T11:15:12;9.20;;;2.65;;
56114;SDS011;41988;53.020;6.576;2023-04-24T11:18:01;5.10;;;2.40;;
56114;SDS011;41988;53.020;6.576;2023-04-24T11:20:46;7.72;;;2.45;;
56114;SDS011;41988;53.020;6.576;2023-04-24T11:23:35;6.72;;;2.28;;
56114;SDS011;41988;53.020;6.576;2023-04-24T11:26:24;8.20;;;2.42;;
56114;SDS011;41988;53.020;6.576;2023-04-24T11:29:14;7.28;;;2.17;;
56114;SDS011;41988;53.020;6.576;2023-04-24T11:31:59;7.60;;;2.53;;
56114;SDS011;41988;53.020;6.576;2023-04-24T11:37:44;11.25;;;2.58;;
56114;SDS011;41988;53.020;6.576;2023-04-24T11:40:29;8.48;;;2.58;;
56114;SDS011;41988;53.020;6.576;2023-04-24T11:43:14;11.00;;;3.28;;
56114;SDS011;41988;53.020;6.576;2023-04-24T11:46:02;13.10;;;2.90;;
56114;SDS011;41988;53.020;6.576;2023-04-24T11:48:47;12.93;;;2.80;;
56114;SDS011;41988;53.020;6.576;2023-04-24T11:51:31;7.30;;;2.20;;
56114;SDS011;41988;53.020;6.576;2023-04-24T11:54:15;8.95;;;1.92;;
56114;SDS011;41988;53.020;6.576;2023-04-24T11:57:03;10.85;;;2.60;;
56114;SDS011;41988;53.020;6.576;2023-04-24T11:59:48;7.28;;;1.92;;
56114;SDS011;41988;53.020;6.576;2023-04-24T12:02:32;6.18;;;2.20;;
56114;SDS011;41988;53.020;6.576;2023-04-24T12:05:24;5.13;;;1.88;;
56114;SDS011;41988;53.020;6.576;2023-04-24T12:08:09;5.70;;;1.83;;
56114;SDS011;41988;53.020;6.576;2023-04-24T12:10:54;8.68;;;1.83;;
56114;SDS011;41988;53.020;6.576;2023-04-24T12:13:39;8.52;;;1.80;;
56114;SDS011;41988;53.020;6.576;2023-04-24T12:16:26;6.22;;;1.83;;
56114;SDS011;41988;53.020;6.576;2023-04-24T12:19:11;5.47;;;2.10;;
56114;SDS011;41988;53.020;6.576;2023-04-24T12:21:59;8.70;;;1.65;;
56114;SDS011;41988;53.020;6.576;2023-04-24T12:25:18;15.88;;;2.15;;
56114;SDS011;41988;53.020;6.576;2023-04-24T12:30:49;9.00;;;2.45;;
56114;SDS011;41988;53.020;6.576;2023-04-24T12:33:35;6.80;;;2.35;;
56114;SDS011;41988;53.020;6.576;2023-04-24T12:36:21;6.75;;;1.65;;
56114;SDS011;41988;53.020;6.576;2023-04-24T12:39:13;4.45;;;1.40;;
56114;SDS011;41988;53.020;6.576;2023-04-24T12:41:59;7.95;;;2.10;;
56114;SDS011;41988;53.020;6.576;2023-04-24T12:44:45;6.32;;;1.67;;
56114;SDS011;41988;53.020;6.576;2023-04-24T12:47:32;5.65;;;1.88;;
56114;SDS011;41988;53.020;6.576;2023-04-24T12:50:17;7.95;;;2.00;;
56114;SDS011;41988;53.020;6.576;2023-04-24T12:53:02;6.95;;;1.92;;
56114;SDS011;41988;53.020;6.576;2023-04-24T12:55:46;5.38;;;1.80;;
56114;SDS011;41988;53.020;6.576;2023-04-24T12:58:36;7.43;;;1.90;;
56114;SDS011;41988;53.020;6.576;2023-04-24T13:01:20;8.18;;;2.05;;
56114;SDS011;41988;53.020;6.576;2023-04-24T13:04:05;7.82;;;1.98;;
56114;SDS011;41988;53.020;6.576;2023-04-24T13:06:50;10.93;;;2.58;;
56114;SDS011;41988;53.020;6.576;2023-04-24T13:09:34;8.13;;;2.20;;
56114;SDS011;41988;53.020;6.576;2023-04-24T13:12:19;4.28;;;1.65;;
56114;SDS011;41988;53.020;6.576;2023-04-24T13:15:04;6.72;;;1.83;;
56114;SDS011;41988;53.020;6.576;2023-04-24T13:17:49;8.30;;;1.35;;
56114;SDS011;41988;53.020;6.576;2023-04-24T13:20:34;5.05;;;1.30;;
56114;SDS011;41988;53.020;6.576;2023-04-24T13:23:19;4.93;;;1.17;;
56114;SDS011;41988;53.020;6.576;2023-04-24T13:26:04;10.43;;;3.35;;
56114;SDS011;41988;53.020;6.576;2023-04-24T13:28:49;5.18;;;1.75;;
56114;SDS011;41988;53.020;6.576;2023-04-24T13:31:33;8.98;;;1.58;;
56114;SDS011;41988;53.020;6.576;2023-04-24T13:34:18;5.28;;;1.40;;
56114;SDS011;41988;53.020;6.576;2023-04-24T13:37:03;4.60;;;1.23;;
56114;SDS011;41988;53.020;6.576;2023-04-24T13:39:48;5.22;;;1.45;;
56114;SDS011;41988;53.020;6.576;2023-04-24T13:42:33;3.38;;;1.27;;
56114;SDS011;41988;53.020;6.576;2023-04-24T13:45:17;4.63;;;1.00;;
56114;SDS011;41988;53.020;6.576;2023-04-24T13:48:02;3.05;;;0.70;;
56114;SDS011;41988;53.020;6.576;2023-04-24T13:50:47;4.43;;;1.27;;
56114;SDS011;41988;53.020;6.576;2023-04-24T13:53:33;3.80;;;1.10;;
56114;SDS011;41988;53.020;6.576;2023-04-24T13:56:22;4.28;;;1.05;;
56114;SDS011;41988;53.020;6.576;2023-04-24T13:59:06;3.83;;;1.10;;
56114;SDS011;41988;53.020;6.576;2023-04-24T14:01:52;4.80;;;1.00;;
56114;SDS011;41988;53.020;6.576;2023-04-24T14:04:36;3.60;;;1.00;;
56114;SDS011;41988;53.020;6.576;2023-04-24T14:07:21;2.03;;;0.75;;
56114;SDS011;41988;53.020;6.576;2023-04-24T14:10:06;5.00;;;1.40;;
56114;SDS011;41988;53.020;6.576;2023-04-24T14:12:51;3.22;;;1.00;;
56114;SDS011;41988;53.020;6.576;2023-04-24T14:15:36;5.50;;;1.70;;
56114;SDS011;41988;53.020;6.576;2023-04-24T14:18:23;7.07;;;1.30;;
56114;SDS011;41988;53.020;6.576;2023-04-24T14:21:08;5.95;;;1.13;;
56114;SDS011;41988;53.020;6.576;2023-04-24T14:23:52;5.90;;;1.23;;
56114;SDS011;41988;53.020;6.576;2023-04-24T14:26:37;5.53;;;1.50;;
56114;SDS011;41988;53.020;6.576;2023-04-24T14:29:21;8.38;;;1.58;;
56114;SDS011;41988;53.020;6.576;2023-04-24T14:32:06;8.38;;;1.83;;
56114;SDS011;41988;53.020;6.576;2023-04-24T14:34:52;5.55;;;1.65;;
56114;SDS011;41988;53.020;6.576;2023-04-24T14:37:37;8.57;;;1.90;;
56114;SDS011;41988;53.020;6.576;2023-04-24T14:40:24;11.10;;;2.33;;
56114;SDS011;41988;53.020;6.576;2023-04-24T14:43:09;10.43;;;1.90;;
56114;SDS011;41988;53.020;6.576;2023-04-24T14:45:54;9.70;;;2.25;;
56114;SDS011;41988;53.020;6.576;2023-04-24T14:48:39;12.38;;;3.13;;
56114;SDS011;41988;53.020;6.576;2023-04-24T14:51:23;8.93;;;2.45;;
56114;SDS011;41988;53.020;6.576;2023-04-24T14:54:09;9.05;;;2.53;;
56114;SDS011;41988;53.020;6.576;2023-04-24T14:56:54;15.27;;;2.20;;
56114;SDS011;41988;53.020;6.576;2023-04-24T14:59:40;11.38;;;2.75;;
56114;SDS011;41988;53.020;6.576;2023-04-24T15:02:25;10.48;;;2.90;;
56114;SDS011;41988;53.020;6.576;2023-04-24T15:05:09;10.82;;;2.38;;
56114;SDS011;41988;53.020;6.576;2023-04-24T15:07:54;11.30;;;2.65;;
56114;SDS011;41988;53.020;6.576;2023-04-24T15:10:39;13.07;;;2.95;;
56114;SDS011;41988;53.020;6.576;2023-04-24T15:13:23;11.88;;;2.80;;
56114;SDS011;41988;53.020;6.576;2023-04-24T15:16:08;11.02;;;2.83;;
56114;SDS011;41988;53.020;6.576;2023-04-24T15:18:52;11.15;;;2.50;;
56114;SDS011;41988;53.020;6.576;2023-04-24T15:21:37;10.65;;;2.83;;
56114;SDS011;41988;53.020;6.576;2023-04-24T15:24:25;8.13;;;2.40;;
56114;SDS011;41988;53.020;6.576;2023-04-24T15:27:09;7.72;;;2.42;;
56114;SDS011;41988;53.020;6.576;2023-04-24T15:29:54;14.45;;;4.03;;
56114;SDS011;41988;53.020;6.576;2023-04-24T15:32:39;13.48;;;3.33;;
56114;SDS011;41988;53.020;6.576;2023-04-24T15:35:24;12.55;;;3.03;;
56114;SDS011;41988;53.020;6.576;2023-04-24T15:38:09;11.80;;;2.72;;
56114;SDS011;41988;53.020;6.576;2023-04-24T15:40:54;8.85;;;2.58;;
56114;SDS011;41988;53.020;6.576;2023-04-24T15:43:38;12.93;;;3.45;;
56114;SDS011;41988;53.020;6.576;2023-04-24T15:46:24;17.13;;;3.20;;
56114;SDS011;41988;53.020;6.576;2023-04-24T15:49:09;13.73;;;3.63;;
56114;SDS011;41988;53.020;6.576;2023-04-24T15:51:54;13.60;;;3.25;;
56114;SDS011;41988;53.020;6.576;2023-04-24T15:54:38;9.38;;;3.78;;
56114;SDS011;41988;53.020;6.576;2023-04-24T15:57:24;11.20;;;3.30;;
56114;SDS011;41988;53.020;6.576;2023-04-24T16:00:09;9.82;;;2.47;;
56114;SDS011;41988;53.020;6.576;2023-04-24T16:02:54;13.55;;;2.80;;
56114;SDS011;41988;53.020;6.576;2023-04-24T16:05:39;11.02;;;3.03;;
56114;SDS011;41988;53.020;6.576;2023-04-24T16:08:23;8.70;;;3.63;;
56114;SDS011;41988;53.020;6.576;2023-04-24T16:11:08;11.30;;;2.70;;
56114;SDS011;41988;53.020;6.576;2023-04-24T16:13:52;11.50;;;2.88;;
56114;SDS011;41988;53.020;6.576;2023-04-24T16:16:37;11.77;;;3.03;;
56114;SDS011;41988;53.020;6.576;2023-04-24T16:19:21;11.07;;;3.40;;
56114;SDS011;41988;53.020;6.576;2023-04-24T16:22:06;15.00;;;3.78;;
56114;SDS011;41988;53.020;6.576;2023-04-24T16:24:51;11.27;;;3.40;;
56114;SDS011;41988;53.020;6.576;2023-04-24T16:27:35;11.70;;;3.20;;
56114;SDS011;41988;53.020;6.576;2023-04-24T16:30:20;10.57;;;3.30;;
56114;SDS011;41988;53.020;6.576;2023-04-24T16:33:05;14.75;;;3.38;;
56114;SDS011;41988;53.020;6.576;2023-04-24T16:35:51;14.38;;;4.30;;
56114;SDS011;41988;53.020;6.576;2023-04-24T16:38:36;11.60;;;3.10;;